Roslin, United Kingdom
Current Conditions -  °F | °C
As of 5:50 AM on Tuesday 27 Jan 2015 (Local Time) from EGPH Reporting Station
Few Clouds Few Clouds  
Wind Chill: 37°   Ceiling: Unl
Heat Index: 43°   Visibility: 6mi
Dew Point: 41°   Wind: 12mph
Humidity: 93%   Direction: 250°WSW
Pressure: 30.18"   Gusts: NA
Location:  55.86°N, 3.16°W
Report Text: EGPH 270550Z 25010KT 9999 FEW014 06/05 Q1022
Loading
Personal Weather Stations






























Interactive Weather Map New forecast layout! Learn more

10-Day Weather Forecast

Advertisements
Track Severe Weather on mobile